sensor_id;sensor_type;location;lat;lon;timestamp;temperature;humidity
14850;DHT22;7517;48.400;11.770;2023-04-01T00:00:51;13.70;61.90
14850;DHT22;7517;48.400;11.770;2023-04-01T00:03:19;13.70;61.80
14850;DHT22;7517;48.400;11.770;2023-04-01T00:05:47;13.70;61.90
14850;DHT22;7517;48.400;11.770;2023-04-01T00:08:17;13.70;61.90
14850;DHT22;7517;48.400;11.770;2023-04-01T00:10:45;13.70;61.90
14850;DHT22;7517;48.400;11.770;2023-04-01T00:13:12;13.70;61.90
14850;DHT22;7517;48.400;11.770;2023-04-01T00:15:40;13.70;62.00
14850;DHT22;7517;48.400;11.770;2023-04-01T00:18:08;13.70;61.90
14850;DHT22;7517;48.400;11.770;2023-04-01T00:20:36;13.60;61.80
14850;DHT22;7517;48.400;11.770;2023-04-01T00:23:04;13.60;61.80
14850;DHT22;7517;48.400;11.770;2023-04-01T00:25:33;13.60;61.80
14850;DHT22;7517;48.400;11.770;2023-04-01T00:28:00;13.60;61.80
14850;DHT22;7517;48.400;11.770;2023-04-01T00:30:28;13.60;61.80
14850;DHT22;7517;48.400;11.770;2023-04-01T00:32:56;13.50;61.80
14850;DHT22;7517;48.400;11.770;2023-04-01T00:35:26;13.50;61.80
14850;DHT22;7517;48.400;11.770;2023-04-01T00:37:54;13.50;61.90
14850;DHT22;7517;48.400;11.770;2023-04-01T00:40:28;13.40;61.80
14850;DHT22;7517;48.400;11.770;2023-04-01T00:43:01;13.40;61.80
14850;DHT22;7517;48.400;11.770;2023-04-01T00:45:32;13.40;61.90
14850;DHT22;7517;48.400;11.770;2023-04-01T00:48:04;13.40;62.10
14850;DHT22;7517;48.400;11.770;2023-04-01T00:50:34;13.40;62.20
14850;DHT22;7517;48.400;11.770;2023-04-01T00:53:03;13.30;62.30
14850;DHT22;7517;48.400;11.770;2023-04-01T00:55:34;13.30;62.30
14850;DHT22;7517;48.400;11.770;2023-04-01T00:58:10;13.30;62.40
14850;DHT22;7517;48.400;11.770;2023-04-01T01:00:40;13.30;62.40
14850;DHT22;7517;48.400;11.770;2023-04-01T01:03:08;13.30;62.50
14850;DHT22;7517;48.400;11.770;2023-04-01T01:05:49;13.30;62.70
14850;DHT22;7517;48.400;11.770;2023-04-01T01:08:33;13.30;62.90
14850;DHT22;7517;48.400;11.770;2023-04-01T01:11:21;13.30;62.90
14850;DHT22;7517;48.400;11.770;2023-04-01T01:13:59;13.30;62.80
14850;DHT22;7517;48.400;11.770;2023-04-01T01:16:36;13.30;62.90
14850;DHT22;7517;48.400;11.770;2023-04-01T01:19:18;13.30;63.00
14850;DHT22;7517;48.400;11.770;2023-04-01T01:22:12;13.30;63.00
14850;DHT22;7517;48.400;11.770;2023-04-01T01:25:16;13.30;62.90
14850;DHT22;7517;48.400;11.770;2023-04-01T01:28:00;13.30;62.90
14850;DHT22;7517;48.400;11.770;2023-04-01T01:30:44;13.30;62.90
14850;DHT22;7517;48.400;11.770;2023-04-01T01:36:31;13.30;62.80
14850;DHT22;7517;48.400;11.770;2023-04-01T01:39:01;13.30;62.80
14850;DHT22;7517;48.400;11.770;2023-04-01T01:41:35;13.30;62.80
14850;DHT22;7517;48.400;11.770;2023-04-01T01:44:08;13.30;62.80
14850;DHT22;7517;48.400;11.770;2023-04-01T01:46:41;13.30;62.90
14850;DHT22;7517;48.400;11.770;2023-04-01T01:49:10;13.30;62.90
14850;DHT22;7517;48.400;11.770;2023-04-01T01:51:43;13.30;62.90
14850;DHT22;7517;48.400;11.770;2023-04-01T01:54:12;13.30;62.90
14850;DHT22;7517;48.400;11.770;2023-04-01T01:56:41;13.30;62.80
14850;DHT22;7517;48.400;11.770;2023-04-01T01:59:12;13.20;62.80
14850;DHT22;7517;48.400;11.770;2023-04-01T02:01:44;13.20;62.80
14850;DHT22;7517;48.400;11.770;2023-04-01T02:04:17;13.20;62.90
14850;DHT22;7517;48.400;11.770;2023-04-01T02:06:52;13.20;63.00
14850;DHT22;7517;48.400;11.770;2023-04-01T02:09:22;13.20;63.10
14850;DHT22;7517;48.400;11.770;2023-04-01T02:11:52;13.20;63.20
14850;DHT22;7517;48.400;11.770;2023-04-01T02:14:23;13.10;63.10
14850;DHT22;7517;48.400;11.770;2023-04-01T02:16:56;13.10;63.10
14850;DHT22;7517;48.400;11.770;2023-04-01T02:19:27;13.10;63.10
14850;DHT22;7517;48.400;11.770;2023-04-01T02:22:01;13.10;63.20
14850;DHT22;7517;48.400;11.770;2023-04-01T02:24:31;13.10;63.30
14850;DHT22;7517;48.400;11.770;2023-04-01T02:27:01;13.10;63.20
14850;DHT22;7517;48.400;11.770;2023-04-01T02:29:31;13.10;63.30
14850;DHT22;7517;48.400;11.770;2023-04-01T02:31:59;13.10;63.30
14850;DHT22;7517;48.400;11.770;2023-04-01T02:34:27;13.10;63.30
14850;DHT22;7517;48.400;11.770;2023-04-01T02:36:55;13.00;63.20
14850;DHT22;7517;48.400;11.770;2023-04-01T02:39:25;13.00;63.20
14850;DHT22;7517;48.400;11.770;2023-04-01T02:41:53;13.00;63.30
14850;DHT22;7517;48.400;11.770;2023-04-01T02:44:20;13.00;63.30
14850;DHT22;7517;48.400;11.770;2023-04-01T02:46:48;13.00;63.40
14850;DHT22;7517;48.400;11.770;2023-04-01T02:49:15;13.00;63.40
14850;DHT22;7517;48.400;11.770;2023-04-01T02:51:43;13.00;63.40
14850;DHT22;7517;48.400;11.770;2023-04-01T02:54:10;13.00;63.30
14850;DHT22;7517;48.400;11.770;2023-04-01T02:56:39;12.90;63.40
14850;DHT22;7517;48.400;11.770;2023-04-01T02:59:06;12.90;63.40
14850;DHT22;7517;48.400;11.770;2023-04-01T03:01:33;12.90;63.50
14850;DHT22;7517;48.400;11.770;2023-04-01T03:04:01;12.90;63.50
14850;DHT22;7517;48.400;11.770;2023-04-01T03:06:28;12.90;63.50
14850;DHT22;7517;48.400;11.770;2023-04-01T03:08:56;12.90;63.50
14850;DHT22;7517;48.400;11.770;2023-04-01T03:11:23;12.90;63.50
14850;DHT22;7517;48.400;11.770;2023-04-01T03:13:53;12.90;63.50
14850;DHT22;7517;48.400;11.770;2023-04-01T03:16:20;12.90;63.50
14850;DHT22;7517;48.400;11.770;2023-04-01T03:18:48;12.90;63.50
14850;DHT22;7517;48.400;11.770;2023-04-01T03:21:19;12.90;63.60
14850;DHT22;7517;48.400;11.770;2023-04-01T03:23:48;12.90;63.50
14850;DHT22;7517;48.400;11.770;2023-04-01T03:26:16;12.90;63.50
14850;DHT22;7517;48.400;11.770;2023-04-01T03:28:44;12.90;63.50
14850;DHT22;7517;48.400;11.770;2023-04-01T03:31:14;12.90;63.60
14850;DHT22;7517;48.400;11.770;2023-04-01T03:33:42;12.90;64.40
14850;DHT22;7517;48.400;11.770;2023-04-01T03:36:10;12.90;63.60
14850;DHT22;7517;48.400;11.770;2023-04-01T03:38:39;12.90;63.70
14850;DHT22;7517;48.400;11.770;2023-04-01T03:41:11;12.90;63.70
14850;DHT22;7517;48.400;11.770;2023-04-01T03:43:39;12.80;63.70
14850;DHT22;7517;48.400;11.770;2023-04-01T03:46:06;12.80;63.60
14850;DHT22;7517;48.400;11.770;2023-04-01T03:48:35;12.80;63.60
14850;DHT22;7517;48.400;11.770;2023-04-01T03:51:07;12.80;63.60
14850;DHT22;7517;48.400;11.770;2023-04-01T03:53:35;12.80;63.60
14850;DHT22;7517;48.400;11.770;2023-04-01T03:56:04;12.80;63.60
14850;DHT22;7517;48.400;11.770;2023-04-01T03:58:32;12.80;63.60
14850;DHT22;7517;48.400;11.770;2023-04-01T04:00:59;12.70;63.60
14850;DHT22;7517;48.400;11.770;2023-04-01T04:03:26;12.70;63.60
14850;DHT22;7517;48.400;11.770;2023-04-01T04:05:55;12.70;63.60
14850;DHT22;7517;48.400;11.770;2023-04-01T04:08:24;12.70;63.70
14850;DHT22;7517;48.400;11.770;2023-04-01T04:10:55;12.70;63.80
14850;DHT22;7517;48.400;11.770;2023-04-01T04:13:23;12.70;63.80
14850;DHT22;7517;48.400;11.770;2023-04-01T04:15:50;12.60;63.70
14850;DHT22;7517;48.400;11.770;2023-04-01T04:18:18;12.60;63.80
14850;DHT22;7517;48.400;11.770;2023-04-01T04:20:46;12.60;63.90
14850;DHT22;7517;48.400;11.770;2023-04-01T04:23:18;12.60;63.80
14850;DHT22;7517;48.400;11.770;2023-04-01T04:25:54;12.70;63.90
14850;DHT22;7517;48.400;11.770;2023-04-01T04:28:23;12.70;64.00
14850;DHT22;7517;48.400;11.770;2023-04-01T04:30:51;12.70;64.00
14850;DHT22;7517;48.400;11.770;2023-04-01T04:33:19;12.70;63.90
14850;DHT22;7517;48.400;11.770;2023-04-01T04:35:46;12.70;63.80
14850;DHT22;7517;48.400;11.770;2023-04-01T04:38:15;12.60;63.70
14850;DHT22;7517;48.400;11.770;2023-04-01T04:40:46;12.60;63.70
14850;DHT22;7517;48.400;11.770;2023-04-01T04:43:14;12.60;63.80
14850;DHT22;7517;48.400;11.770;2023-04-01T04:45:43;12.60;63.80
14850;DHT22;7517;48.400;11.770;2023-04-01T04:48:12;12.60;63.80
14850;DHT22;7517;48.400;11.770;2023-04-01T04:50:44;12.60;63.80
14850;DHT22;7517;48.400;11.770;2023-04-01T04:53:14;12.60;64.00
14850;DHT22;7517;48.400;11.770;2023-04-01T04:55:46;12.50;63.90
14850;DHT22;7517;48.400;11.770;2023-04-01T04:58:15;12.50;64.10
14850;DHT22;7517;48.400;11.770;2023-04-01T05:00:43;12.50;64.20
14850;DHT22;7517;48.400;11.770;2023-04-01T05:03:11;12.50;64.30
14850;DHT22;7517;48.400;11.770;2023-04-01T05:05:47;12.50;64.40
14850;DHT22;7517;48.400;11.770;2023-04-01T05:08:16;12.60;64.50
14850;DHT22;7517;48.400;11.770;2023-04-01T05:10:45;12.60;64.40
14850;DHT22;7517;48.400;11.770;2023-04-01T05:13:13;12.60;64.50
14850;DHT22;7517;48.400;11.770;2023-04-01T05:15:40;12.60;64.60
14850;DHT22;7517;48.400;11.770;2023-04-01T05:18:07;12.60;64.60
14850;DHT22;7517;48.400;11.770;2023-04-01T05:20:35;12.60;64.70
14850;DHT22;7517;48.400;11.770;2023-04-01T05:23:03;12.60;64.70
14850;DHT22;7517;48.400;11.770;2023-04-01T05:25:30;12.60;64.80
14850;DHT22;7517;48.400;11.770;2023-04-01T05:27:59;12.60;64.80
14850;DHT22;7517;48.400;11.770;2023-04-01T05:30:27;12.70;65.00
14850;DHT22;7517;48.400;11.770;2023-04-01T05:32:54;12.70;65.00
14850;DHT22;7517;48.400;11.770;2023-04-01T05:35:22;12.70;65.00
14850;DHT22;7517;48.400;11.770;2023-04-01T05:37:50;12.80;65.00
14850;DHT22;7517;48.400;11.770;2023-04-01T05:40:17;12.80;65.10
14850;DHT22;7517;48.400;11.770;2023-04-01T05:42:48;12.90;65.20
14850;DHT22;7517;48.400;11.770;2023-04-01T05:45:16;12.90;65.00
14850;DHT22;7517;48.400;11.770;2023-04-01T05:47:44;12.90;64.90
14850;DHT22;7517;48.400;11.770;2023-04-01T05:50:11;13.00;64.90
14850;DHT22;7517;48.400;11.770;2023-04-01T05:52:39;13.00;64.90
14850;DHT22;7517;48.400;11.770;2023-04-01T05:55:07;13.10;64.90
14850;DHT22;7517;48.400;11.770;2023-04-01T05:57:35;13.10;64.80
14850;DHT22;7517;48.400;11.770;2023-04-01T06:00:03;13.20;64.90
14850;DHT22;7517;48.400;11.770;2023-04-01T06:02:32;13.20;64.80
14850;DHT22;7517;48.400;11.770;2023-04-01T06:05:11;13.20;64.70
14850;DHT22;7517;48.400;11.770;2023-04-01T06:07:42;13.30;64.50
14850;DHT22;7517;48.400;11.770;2023-04-01T06:10:14;13.30;64.40
14850;DHT22;7517;48.400;11.770;2023-04-01T06:12:52;13.30;64.30
14850;DHT22;7517;48.400;11.770;2023-04-01T06:15:36;13.40;64.30
14850;DHT22;7517;48.400;11.770;2023-04-01T06:18:47;13.50;64.30
14850;DHT22;7517;48.400;11.770;2023-04-01T06:22:02;13.50;63.70
14850;DHT22;7517;48.400;11.770;2023-04-01T06:28:41;13.60;63.60
14850;DHT22;7517;48.400;11.770;2023-04-01T06:31:42;13.70;63.70
14850;DHT22;7517;48.400;11.770;2023-04-01T06:34:40;13.70;63.50
14850;DHT22;7517;48.400;11.770;2023-04-01T06:37:38;13.70;63.20
14850;DHT22;7517;48.400;11.770;2023-04-01T06:43:51;13.80;63.10
14850;DHT22;7517;48.400;11.770;2023-04-01T06:46:31;13.80;63.10
14850;DHT22;7517;48.400;11.770;2023-04-01T06:49:24;13.80;63.20
14850;DHT22;7517;48.400;11.770;2023-04-01T06:52:05;13.90;62.90
14850;DHT22;7517;48.400;11.770;2023-04-01T06:54:46;13.90;63.00
14850;DHT22;7517;48.400;11.770;2023-04-01T06:57:24;13.90;62.90
14850;DHT22;7517;48.400;11.770;2023-04-01T06:59:59;13.90;62.80
14850;DHT22;7517;48.400;11.770;2023-04-01T07:02:36;14.00;63.00
14850;DHT22;7517;48.400;11.770;2023-04-01T07:05:11;14.00;62.70
14850;DHT22;7517;48.400;11.770;2023-04-01T07:07:43;14.10;62.60
14850;DHT22;7517;48.400;11.770;2023-04-01T07:10:28;14.10;62.60
14850;DHT22;7517;48.400;11.770;2023-04-01T07:13:05;14.20;62.50
14850;DHT22;7517;48.400;11.770;2023-04-01T07:15:38;14.30;62.40
14850;DHT22;7517;48.400;11.770;2023-04-01T07:18:12;14.40;62.00
14850;DHT22;7517;48.400;11.770;2023-04-01T07:20:46;14.50;61.60
14850;DHT22;7517;48.400;11.770;2023-04-01T07:23:22;14.50;60.60
14850;DHT22;7517;48.400;11.770;2023-04-01T07:25:53;14.60;60.70
14850;DHT22;7517;48.400;11.770;2023-04-01T07:28:30;14.60;61.10
14850;DHT22;7517;48.400;11.770;2023-04-01T07:31:07;14.70;61.30
14850;DHT22;7517;48.400;11.770;2023-04-01T07:33:48;14.70;61.20
14850;DHT22;7517;48.400;11.770;2023-04-01T07:36:29;14.80;60.90
14850;DHT22;7517;48.400;11.770;2023-04-01T07:39:12;14.90;60.50
14850;DHT22;7517;48.400;11.770;2023-04-01T07:41:56;15.00;60.30
14850;DHT22;7517;48.400;11.770;2023-04-01T07:44:37;15.00;60.30
14850;DHT22;7517;48.400;11.770;2023-04-01T07:47:27;15.10;60.10
14850;DHT22;7517;48.400;11.770;2023-04-01T07:50:17;15.20;59.90
14850;DHT22;7517;48.400;11.770;2023-04-01T07:53:01;15.30;59.80
14850;DHT22;7517;48.400;11.770;2023-04-01T07:55:41;15.40;59.60
14850;DHT22;7517;48.400;11.770;2023-04-01T07:58:19;15.40;59.40
14850;DHT22;7517;48.400;11.770;2023-04-01T08:00:56;15.50;60.00
14850;DHT22;7517;48.400;11.770;2023-04-01T08:03:44;15.60;59.50
14850;DHT22;7517;48.400;11.770;2023-04-01T08:06:31;15.60;58.60
14850;DHT22;7517;48.400;11.770;2023-04-01T08:09:08;15.70;58.50
14850;DHT22;7517;48.400;11.770;2023-04-01T08:11:51;15.70;58.50
14850;DHT22;7517;48.400;11.770;2023-04-01T08:14:35;15.70;58.40
14850;DHT22;7517;48.400;11.770;2023-04-01T08:17:12;15.70;58.50
14850;DHT22;7517;48.400;11.770;2023-04-01T08:19:56;15.70;58.30
14850;DHT22;7517;48.400;11.770;2023-04-01T08:22:40;15.70;58.20
14850;DHT22;7517;48.400;11.770;2023-04-01T08:25:17;15.80;58.50
14850;DHT22;7517;48.400;11.770;2023-04-01T08:27:52;15.80;58.20
14850;DHT22;7517;48.400;11.770;2023-04-01T08:30:24;15.80;58.00
14850;DHT22;7517;48.400;11.770;2023-04-01T08:33:12;15.80;58.00
14850;DHT22;7517;48.400;11.770;2023-04-01T08:35:47;15.80;57.50
14850;DHT22;7517;48.400;11.770;2023-04-01T08:38:23;15.80;57.50
14850;DHT22;7517;48.400;11.770;2023-04-01T08:41:02;15.80;57.30
14850;DHT22;7517;48.400;11.770;2023-04-01T08:47:28;15.90;57.60
14850;DHT22;7517;48.400;11.770;2023-04-01T08:50:29;15.90;57.30
14850;DHT22;7517;48.400;11.770;2023-04-01T08:53:18;16.00;57.50
14850;DHT22;7517;48.400;11.770;2023-04-01T08:56:06;16.00;57.30
14850;DHT22;7517;48.400;11.770;2023-04-01T09:08:12;16.20;56.70
14850;DHT22;7517;48.400;11.770;2023-04-01T09:11:14;16.20;56.90
14850;DHT22;7517;48.400;11.770;2023-04-01T09:14:21;16.10;56.60
14850;DHT22;7517;48.400;11.770;2023-04-01T09:17:13;16.20;56.30
14850;DHT22;7517;48.400;11.770;2023-04-01T09:20:17;16.30;56.60
14850;DHT22;7517;48.400;11.770;2023-04-01T09:23:22;16.30;56.90
14850;DHT22;7517;48.400;11.770;2023-04-01T09:29:21;16.60;56.90
14850;DHT22;7517;48.400;11.770;2023-04-01T09:32:12;16.70;56.60
14850;DHT22;7517;48.400;11.770;2023-04-01T09:34:54;16.80;56.20
14850;DHT22;7517;48.400;11.770;2023-04-01T09:37:35;16.80;56.60
14850;DHT22;7517;48.400;11.770;2023-04-01T09:40:18;16.80;56.50
14850;DHT22;7517;48.400;11.770;2023-04-01T09:43:21;17.00;56.40
14850;DHT22;7517;48.400;11.770;2023-04-01T09:46:14;17.00;56.40
14850;DHT22;7517;48.400;11.770;2023-04-01T09:49:12;17.00;55.80
14850;DHT22;7517;48.400;11.770;2023-04-01T09:52:16;17.10;54.80
14850;DHT22;7517;48.400;11.770;2023-04-01T09:55:05;17.10;55.30
14850;DHT22;7517;48.400;11.770;2023-04-01T09:58:09;17.10;55.30
14850;DHT22;7517;48.400;11.770;2023-04-01T10:01:34;17.00;55.10
14850;DHT22;7517;48.400;11.770;2023-04-01T10:04:35;17.00;55.40
14850;DHT22;7517;48.400;11.770;2023-04-01T10:07:59;17.10;55.30
14850;DHT22;7517;48.400;11.770;2023-04-01T10:11:02;17.10;55.40
14850;DHT22;7517;48.400;11.770;2023-04-01T10:14:29;17.10;55.30
14850;DHT22;7517;48.400;11.770;2023-04-01T10:17:51;17.20;55.60
14850;DHT22;7517;48.400;11.770;2023-04-01T10:20:44;17.30;56.30
14850;DHT22;7517;48.400;11.770;2023-04-01T10:30:31;17.50;55.50
14850;DHT22;7517;48.400;11.770;2023-04-01T10:37:21;17.70;54.10
14850;DHT22;7517;48.400;11.770;2023-04-01T10:40:35;17.70;54.80
14850;DHT22;7517;48.400;11.770;2023-04-01T10:43:32;17.60;54.00
14850;DHT22;7517;48.400;11.770;2023-04-01T10:46:41;17.60;54.40
14850;DHT22;7517;48.400;11.770;2023-04-01T10:49:46;17.50;54.30
14850;DHT22;7517;48.400;11.770;2023-04-01T10:56:36;17.30;54.50
14850;DHT22;7517;48.400;11.770;2023-04-01T11:03:12;17.10;55.30
14850;DHT22;7517;48.400;11.770;2023-04-01T11:06:36;17.00;55.40
14850;DHT22;7517;48.400;11.770;2023-04-01T11:13:39;16.80;56.00
14850;DHT22;7517;48.400;11.770;2023-04-01T11:20:20;16.60;56.00
14850;DHT22;7517;48.400;11.770;2023-04-01T11:23:18;16.50;55.90
14850;DHT22;7517;48.400;11.770;2023-04-01T11:26:06;16.40;56.50
14850;DHT22;7517;48.400;11.770;2023-04-01T11:29:03;16.30;56.70
14850;DHT22;7517;48.400;11.770;2023-04-01T11:32:05;16.20;57.50
14850;DHT22;7517;48.400;11.770;2023-04-01T11:34:51;16.10;57.70
14850;DHT22;7517;48.400;11.770;2023-04-01T11:37:38;16.00;58.00
14850;DHT22;7517;48.400;11.770;2023-04-01T11:40:19;16.00;58.40
14850;DHT22;7517;48.400;11.770;2023-04-01T11:42:58;16.00;58.50
14850;DHT22;7517;48.400;11.770;2023-04-01T11:45:36;16.00;58.60
14850;DHT22;7517;48.400;11.770;2023-04-01T11:51:47;15.90;58.50
14850;DHT22;7517;48.400;11.770;2023-04-01T11:58:05;15.80;58.80
14850;DHT22;7517;48.400;11.770;2023-04-01T12:01:03;15.70;58.90
14850;DHT22;7517;48.400;11.770;2023-04-01T12:04:00;15.50;59.30
14850;DHT22;7517;48.400;11.770;2023-04-01T12:06:51;15.40;60.20
14850;DHT22;7517;48.400;11.770;2023-04-01T12:09:35;15.30;59.90
14850;DHT22;7517;48.400;11.770;2023-04-01T12:12:18;15.20;60.10
14850;DHT22;7517;48.400;11.770;2023-04-01T12:15:01;15.00;60.50
14850;DHT22;7517;48.400;11.770;2023-04-01T12:17:45;14.90;61.00
14850;DHT22;7517;48.400;11.770;2023-04-01T12:23:21;14.70;61.80
14850;DHT22;7517;48.400;11.770;2023-04-01T12:26:22;14.60;62.30
14850;DHT22;7517;48.400;11.770;2023-04-01T12:29:17;14.60;62.50
14850;DHT22;7517;48.400;11.770;2023-04-01T12:31:58;14.50;62.50
14850;DHT22;7517;48.400;11.770;2023-04-01T12:35:13;14.40;62.90
14850;DHT22;7517;48.400;11.770;2023-04-01T12:38:11;14.40;64.50
14850;DHT22;7517;48.400;11.770;2023-04-01T12:40:57;14.30;64.50
14850;DHT22;7517;48.400;11.770;2023-04-01T12:44:12;14.30;64.40
14850;DHT22;7517;48.400;11.770;2023-04-01T12:47:12;14.20;64.50
14850;DHT22;7517;48.400;11.770;2023-04-01T12:50:14;14.20;64.40
14850;DHT22;7517;48.400;11.770;2023-04-01T12:56:25;14.10;64.70
14850;DHT22;7517;48.400;11.770;2023-04-01T12:59:21;14.10;64.60
14850;DHT22;7517;48.400;11.770;2023-04-01T13:02:12;14.00;65.90
14850;DHT22;7517;48.400;11.770;2023-04-01T13:05:23;14.00;65.50
14850;DHT22;7517;48.400;11.770;2023-04-01T13:08:14;14.00;66.10
14850;DHT22;7517;48.400;11.770;2023-04-01T13:11:09;13.90;65.70
14850;DHT22;7517;48.400;11.770;2023-04-01T13:14:19;13.90;66.00
14850;DHT22;7517;48.400;11.770;2023-04-01T13:17:27;13.80;66.50
14850;DHT22;7517;48.400;11.770;2023-04-01T13:20:04;13.80;65.90
14850;DHT22;7517;48.400;11.770;2023-04-01T13:22:52;13.70;65.60
14850;DHT22;7517;48.400;11.770;2023-04-01T13:25:36;13.70;66.20
14850;DHT22;7517;48.400;11.770;2023-04-01T13:28:15;13.70;66.10
14850;DHT22;7517;48.400;11.770;2023-04-01T13:30:52;13.60;66.40
14850;DHT22;7517;48.400;11.770;2023-04-01T13:33:38;13.60;66.20
14850;DHT22;7517;48.400;11.770;2023-04-01T13:36:19;13.60;66.70
14850;DHT22;7517;48.400;11.770;2023-04-01T13:39:32;13.60;67.00
14850;DHT22;7517;48.400;11.770;2023-04-01T13:42:14;13.60;67.20
14850;DHT22;7517;48.400;11.770;2023-04-01T13:44:49;13.50;66.90
14850;DHT22;7517;48.400;11.770;2023-04-01T13:47:48;13.60;66.90
14850;DHT22;7517;48.400;11.770;2023-04-01T13:51:24;13.60;67.10
14850;DHT22;7517;48.400;11.770;2023-04-01T13:54:25;13.60;67.00
14850;DHT22;7517;48.400;11.770;2023-04-01T13:57:17;13.70;66.90
14850;DHT22;7517;48.400;11.770;2023-04-01T14:00:12;13.70;66.80
14850;DHT22;7517;48.400;11.770;2023-04-01T14:03:19;13.70;67.10
14850;DHT22;7517;48.400;11.770;2023-04-01T14:06:05;13.70;67.20
14850;DHT22;7517;48.400;11.770;2023-04-01T14:09:01;13.70;67.20
14850;DHT22;7517;48.400;11.770;2023-04-01T14:11:51;13.80;67.10
14850;DHT22;7517;48.400;11.770;2023-04-01T14:14:34;13.80;67.10
14850;DHT22;7517;48.400;11.770;2023-04-01T14:17:26;13.90;67.30
14850;DHT22;7517;48.400;11.770;2023-04-01T14:20:32;13.90;67.60
14850;DHT22;7517;48.400;11.770;2023-04-01T14:23:33;14.00;67.80
14850;DHT22;7517;48.400;11.770;2023-04-01T14:26:50;14.10;67.60
14850;DHT22;7517;48.400;11.770;2023-04-01T14:29:44;14.10;67.70
14850;DHT22;7517;48.400;11.770;2023-04-01T14:32:31;14.20;67.40
14850;DHT22;7517;48.400;11.770;2023-04-01T14:35:20;14.20;67.50
14850;DHT22;7517;48.400;11.770;2023-04-01T14:38:24;14.30;67.80
14850;DHT22;7517;48.400;11.770;2023-04-01T14:41:02;14.30;67.90
14850;DHT22;7517;48.400;11.770;2023-04-01T14:44:18;14.40;67.60
14850;DHT22;7517;48.400;11.770;2023-04-01T14:47:41;14.40;67.60
14850;DHT22;7517;48.400;11.770;2023-04-01T14:50:18;14.40;67.50
14850;DHT22;7517;48.400;11.770;2023-04-01T14:52:58;14.40;67.00
14850;DHT22;7517;48.400;11.770;2023-04-01T14:55:48;14.40;67.60
14850;DHT22;7517;48.400;11.770;2023-04-01T14:58:21;14.50;67.90
14850;DHT22;7517;48.400;11.770;2023-04-01T15:00:58;14.50;67.70
14850;DHT22;7517;48.400;11.770;2023-04-01T15:03:45;14.50;67.70
14850;DHT22;7517;48.400;11.770;2023-04-01T15:06:54;14.40;67.70
14850;DHT22;7517;48.400;11.770;2023-04-01T15:09:34;14.40;67.70
14850;DHT22;7517;48.400;11.770;2023-04-01T15:12:17;14.40;67.20
14850;DHT22;7517;48.400;11.770;2023-04-01T15:15:19;14.40;67.30
14850;DHT22;7517;48.400;11.770;2023-04-01T15:18:05;14.30;67.70
14850;DHT22;7517;48.400;11.770;2023-04-01T15:20:53;14.30;67.30
14850;DHT22;7517;48.400;11.770;2023-04-01T15:23:42;14.20;67.10
14850;DHT22;7517;48.400;11.770;2023-04-01T15:26:33;14.20;67.00
14850;DHT22;7517;48.400;11.770;2023-04-01T15:32:59;14.20;66.90
14850;DHT22;7517;48.400;11.770;2023-04-01T15:35:41;14.10;66.90
14850;DHT22;7517;48.400;11.770;2023-04-01T15:38:27;14.10;67.00
14850;DHT22;7517;48.400;11.770;2023-04-01T15:41:09;14.20;67.20
14850;DHT22;7517;48.400;11.770;2023-04-01T15:43:44;14.20;67.10
14850;DHT22;7517;48.400;11.770;2023-04-01T15:46:41;14.20;66.90
14850;DHT22;7517;48.400;11.770;2023-04-01T15:49:22;14.30;66.50
14850;DHT22;7517;48.400;11.770;2023-04-01T15:52:06;14.30;66.60
14850;DHT22;7517;48.400;11.770;2023-04-01T15:55:17;14.30;66.90
14850;DHT22;7517;48.400;11.770;2023-04-01T15:58:04;14.40;67.10
14850;DHT22;7517;48.400;11.770;2023-04-01T16:00:53;14.40;66.80
14850;DHT22;7517;48.400;11.770;2023-04-01T16:03:36;14.40;66.70
14850;DHT22;7517;48.400;11.770;2023-04-01T16:06:18;14.40;66.80
14850;DHT22;7517;48.400;11.770;2023-04-01T16:12:02;14.40;67.20
14850;DHT22;7517;48.400;11.770;2023-04-01T16:14:40;14.30;67.00
14850;DHT22;7517;48.400;11.770;2023-04-01T16:17:29;14.30;66.80
14850;DHT22;7517;48.400;11.770;2023-04-01T16:20:17;14.30;66.70
14850;DHT22;7517;48.400;11.770;2023-04-01T16:22:55;14.20;66.90
14850;DHT22;7517;48.400;11.770;2023-04-01T16:25:36;14.20;67.00
14850;DHT22;7517;48.400;11.770;2023-04-01T16:28:18;14.10;67.00
14850;DHT22;7517;48.400;11.770;2023-04-01T16:30:57;14.10;67.20
14850;DHT22;7517;48.400;11.770;2023-04-01T16:33:35;14.10;67.30
14850;DHT22;7517;48.400;11.770;2023-04-01T16:36:21;14.00;67.10
14850;DHT22;7517;48.400;11.770;2023-04-01T16:39:11;14.00;66.90
14850;DHT22;7517;48.400;11.770;2023-04-01T16:41:51;14.00;67.30
14850;DHT22;7517;48.400;11.770;2023-04-01T16:44:49;14.00;67.20
14850;DHT22;7517;48.400;11.770;2023-04-01T16:47:23;13.90;67.00
14850;DHT22;7517;48.400;11.770;2023-04-01T16:50:00;13.90;66.80
14850;DHT22;7517;48.400;11.770;2023-04-01T16:52:55;13.90;66.80
14850;DHT22;7517;48.400;11.770;2023-04-01T16:55:43;13.90;66.80
14850;DHT22;7517;48.400;11.770;2023-04-01T16:58:22;13.90;66.50
14850;DHT22;7517;48.400;11.770;2023-04-01T17:01:00;14.20;66.70
14850;DHT22;7517;48.400;11.770;2023-04-01T17:03:34;13.90;66.40
14850;DHT22;7517;48.400;11.770;2023-04-01T17:06:24;13.90;66.00
14850;DHT22;7517;48.400;11.770;2023-04-01T17:09:38;13.90;65.90
14850;DHT22;7517;48.400;11.770;2023-04-01T17:12:26;14.00;66.10
14850;DHT22;7517;48.400;11.770;2023-04-01T17:15:05;14.00;66.10
14850;DHT22;7517;48.400;11.770;2023-04-01T17:17:51;14.00;65.90
14850;DHT22;7517;48.400;11.770;2023-04-01T17:20:33;14.00;65.90
14850;DHT22;7517;48.400;11.770;2023-04-01T17:23:14;14.00;65.40
14850;DHT22;7517;48.400;11.770;2023-04-01T17:26:09;14.00;65.10
14850;DHT22;7517;48.400;11.770;2023-04-01T17:28:51;14.10;65.20
14850;DHT22;7517;48.400;11.770;2023-04-01T17:31:37;14.00;65.10
14850;DHT22;7517;48.400;11.770;2023-04-01T17:34:35;14.10;64.90
14850;DHT22;7517;48.400;11.770;2023-04-01T17:37:24;14.20;64.80
14850;DHT22;7517;48.400;11.770;2023-04-01T17:40:28;14.10;64.60
14850;DHT22;7517;48.400;11.770;2023-04-01T17:43:12;14.10;64.30
14850;DHT22;7517;48.400;11.770;2023-04-01T17:45:53;14.10;64.40
14850;DHT22;7517;48.400;11.770;2023-04-01T17:48:35;14.10;64.30
14850;DHT22;7517;48.400;11.770;2023-04-01T17:51:23;14.10;64.10
14850;DHT22;7517;48.400;11.770;2023-04-01T17:54:06;14.20;64.10
14850;DHT22;7517;48.400;11.770;2023-04-01T17:56:55;14.10;64.20
14850;DHT22;7517;48.400;11.770;2023-04-01T17:59:36;14.20;64.10
14850;DHT22;7517;48.400;11.770;2023-04-01T18:02:16;14.20;64.00
14850;DHT22;7517;48.400;11.770;2023-04-01T18:05:13;14.20;63.90
14850;DHT22;7517;48.400;11.770;2023-04-01T18:08:25;14.20;63.50
14850;DHT22;7517;48.400;11.770;2023-04-01T18:11:11;14.20;63.60
14850;DHT22;7517;48.400;11.770;2023-04-01T18:14:04;14.20;63.60
14850;DHT22;7517;48.400;11.770;2023-04-01T18:20:20;14.20;63.60